Time;durP1;ratioP1;P1;durP2;ratioP2;P2;SDS_P1;SDS_P2;PMS_P1;PMS_P2;Temp;Humidity;BMP_temperature;BMP_pressure;BME280_temperature;BME280_humidity;BME280_pressure;Samples;Min_cycle;Max_cycle;Signal;HPM_P1;HPM_P2
2019/11/05 00:01:45;;;;;;;1.25;1.15;;;;;;;20.91;54.79;98663.12;;;;-49
2019/11/05 00:04:45;;;;;;;1.30;1.20;;;;;;;20.89;54.76;98661.91;;;;-49
2019/11/05 00:07:45;;;;;;;1.16;1.10;;;;;;;20.88;54.82;98658.29;;;;-49
2019/11/05 00:10:45;;;;;;;1.20;1.10;;;;;;;20.88;54.78;98663.27;;;;-49
2019/11/05 00:13:45;;;;;;;1.25;1.17;;;;;;;20.87;54.82;98665.94;;;;-49
2019/11/05 00:16:45;;;;;;;1.29;1.19;;;;;;;20.86;54.83;98661.80;;;;-49
2019/11/05 00:19:45;;;;;;;1.30;1.20;;;;;;;20.85;54.79;98667.67;;;;-49
2019/11/05 00:22:45;;;;;;;1.15;1.10;;;;;;;20.84;54.80;98670.94;;;;-49
2019/11/05 00:25:45;;;;;;;1.01;1.01;;;;;;;20.84;54.78;98678.13;;;;-49
2019/11/05 00:28:45;;;;;;;1.11;1.00;;;;;;;20.82;54.79;98679.30;;;;-50
2019/11/05 00:31:46;;;;;;;1.09;1.09;;;;;;;20.82;54.78;98688.53;;;;-49
2019/11/05 00:34:45;;;;;;;1.17;1.11;;;;;;;20.81;54.74;98685.81;;;;-49
2019/11/05 00:37:45;;;;;;;1.16;1.06;;;;;;;20.80;54.78;98691.46;;;;-49
2019/11/05 00:40:45;;;;;;;1.26;1.20;;;;;;;20.79;54.77;98684.27;;;;-49
2019/11/05 00:43:45;;;;;;;1.30;1.20;;;;;;;20.79;54.77;98682.67;;;;-49
2019/11/05 00:46:45;;;;;;;1.21;1.13;;;;;;;20.78;54.80;98684.84;;;;-49
2019/11/05 00:49:45;;;;;;;1.31;1.21;;;;;;;20.76;54.78;98683.16;;;;-49
2019/11/05 00:52:45;;;;;;;1.03;1.03;;;;;;;20.76;54.82;98681.73;;;;-49
2019/11/05 00:55:45;;;;;;;1.26;1.14;;;;;;;20.75;54.80;98676.59;;;;-49
2019/11/05 00:58:45;;;;;;;1.12;1.09;;;;;;;20.73;54.78;98678.09;;;;-49
2019/11/05 01:01:45;;;;;;;1.25;1.14;;;;;;;20.73;54.79;98671.20;;;;-49
2019/11/05 01:04:45;;;;;;;1.55;1.15;;;;;;;20.72;54.80;98663.08;;;;-49
2019/11/05 01:07:45;;;;;;;1.20;1.10;;;;;;;20.72;54.80;98664.48;;;;-49
2019/11/05 01:10:45;;;;;;;1.16;1.10;;;;;;;20.71;54.78;98659.80;;;;-49
2019/11/05 01:13:45;;;;;;;1.27;1.17;;;;;;;20.70;54.81;98658.17;;;;-49
2019/11/05 01:16:45;;;;;;;1.20;1.10;;;;;;;20.69;54.77;98655.92;;;;-49
2019/11/05 01:19:45;;;;;;;1.09;1.09;;;;;;;20.68;54.80;98650.21;;;;-49
2019/11/05 01:22:46;;;;;;;1.23;1.12;;;;;;;20.67;54.81;98648.86;;;;-49
2019/11/05 01:25:45;;;;;;;1.19;1.10;;;;;;;20.66;54.83;98648.91;;;;-49
2019/11/05 01:28:45;;;;;;;1.25;1.18;;;;;;;20.66;54.86;98654.78;;;;-49
2019/11/05 01:31:45;;;;;;;1.09;1.09;;;;;;;20.65;54.87;98656.20;;;;-49
2019/11/05 01:34:45;;;;;;;1.26;1.17;;;;;;;20.63;54.84;98656.09;;;;-49
2019/11/05 01:37:45;;;;;;;1.12;1.09;;;;;;;20.62;54.90;98665.65;;;;-49
2019/11/05 01:40:45;;;;;;;1.10;1.10;;;;;;;20.62;54.85;98661.20;;;;-49
2019/11/05 01:43:45;;;;;;;1.22;1.10;;;;;;;20.61;54.87;98659.28;;;;-49
2019/11/05 01:46:45;;;;;;;1.21;1.12;;;;;;;20.60;54.89;98660.26;;;;-49
2019/11/05 01:49:45;;;;;;;1.21;1.11;;;;;;;20.60;54.88;98662.61;;;;-49
2019/11/05 01:52:45;;;;;;;1.25;1.17;;;;;;;20.59;54.84;98664.30;;;;-49
2019/11/05 01:55:45;;;;;;;1.17;1.12;;;;;;;20.58;54.86;98669.38;;;;-49
2019/11/05 01:58:45;;;;;;;1.17;1.07;;;;;;;20.58;54.87;98666.02;;;;-49
2019/11/05 02:01:45;;;;;;;1.30;1.20;;;;;;;20.57;54.79;98663.74;;;;-49
2019/11/05 02:04:45;;;;;;;1.27;1.17;;;;;;;20.56;54.84;98667.50;;;;-49
2019/11/05 02:07:45;;;;;;;1.20;1.10;;;;;;;20.56;54.83;98666.92;;;;-49
2019/11/05 02:10:45;;;;;;;1.31;1.21;;;;;;;20.55;54.87;98668.25;;;;-49
2019/11/05 02:13:45;;;;;;;1.20;1.10;;;;;;;20.54;54.84;98662.13;;;;-49
2019/11/05 02:16:45;;;;;;;1.12;1.08;;;;;;;20.53;54.88;98653.75;;;;-49
2019/11/05 02:19:45;;;;;;;2.45;1.12;;;;;;;20.52;54.83;98652.64;;;;-49
2019/11/05 02:22:45;;;;;;;1.29;1.19;;;;;;;20.51;54.83;98647.44;;;;-49
2019/11/05 02:25:45;;;;;;;1.26;1.17;;;;;;;20.51;54.82;98650.86;;;;-49
2019/11/05 02:28:45;;;;;;;1.33;1.10;;;;;;;20.50;54.84;98652.77;;;;-49
2019/11/05 02:31:45;;;;;;;1.26;1.15;;;;;;;20.49;54.81;98657.23;;;;-49
2019/11/05 02:34:45;;;;;;;1.19;1.09;;;;;;;20.49;54.83;98649.33;;;;-49
2019/11/05 02:37:45;;;;;;;1.17;1.13;;;;;;;20.48;54.81;98650.92;;;;-49
2019/11/05 02:40:45;;;;;;;1.20;1.11;;;;;;;20.48;54.80;98648.98;;;;-49
2019/11/05 02:43:45;;;;;;;1.20;1.10;;;;;;;20.47;54.82;98648.16;;;;-49
2019/11/05 02:46:45;;;;;;;1.19;1.10;;;;;;;20.47;54.82;98643.77;;;;-49
2019/11/05 02:49:45;;;;;;;1.28;1.18;;;;;;;20.47;54.80;98650.07;;;;-49
2019/11/05 02:52:45;;;;;;;1.33;1.23;;;;;;;20.45;54.85;98643.92;;;;-49
2019/11/05 02:55:45;;;;;;;1.33;1.22;;;;;;;20.45;54.81;98640.32;;;;-49
2019/11/05 02:58:45;;;;;;;1.26;1.16;;;;;;;20.44;54.82;98642.33;;;;-49
2019/11/05 03:01:45;;;;;;;1.35;1.17;;;;;;;20.44;54.84;98643.00;;;;-49
2019/11/05 03:04:45;;;;;;;1.18;1.10;;;;;;;20.43;54.85;98643.83;;;;-49
2019/11/05 03:07:45;;;;;;;1.28;1.18;;;;;;;20.42;54.87;98648.94;;;;-49
2019/11/05 03:10:45;;;;;;;1.28;1.18;;;;;;;20.42;54.87;98655.38;;;;-49
2019/11/05 03:13:45;;;;;;;1.77;1.17;;;;;;;20.41;54.85;98652.11;;;;-49
2019/11/05 03:16:45;;;;;;;1.28;1.18;;;;;;;20.41;54.86;98656.70;;;;-49
2019/11/05 03:19:45;;;;;;;1.63;1.14;;;;;;;20.40;54.86;98655.86;;;;-49
2019/11/05 03:22:45;;;;;;;1.11;1.01;;;;;;;20.40;54.84;98658.44;;;;-49
2019/11/05 03:25:45;;;;;;;1.83;1.21;;;;;;;20.38;54.82;98654.77;;;;-49
2019/11/05 03:28:45;;;;;;;1.22;1.10;;;;;;;20.39;54.84;98661.72;;;;-49
2019/11/05 03:31:45;;;;;;;1.19;1.09;;;;;;;20.39;54.83;98664.06;;;;-49
2019/11/05 03:34:45;;;;;;;1.19;1.09;;;;;;;20.37;54.87;98667.49;;;;-49
2019/11/05 03:37:45;;;;;;;1.35;1.20;;;;;;;20.36;54.88;98663.45;;;;-49
2019/11/05 03:40:45;;;;;;;1.33;1.23;;;;;;;20.35;54.87;98670.55;;;;-49
2019/11/05 03:43:45;;;;;;;1.07;1.07;;;;;;;20.35;54.85;98670.64;;;;-49
2019/11/05 03:46:45;;;;;;;1.11;1.10;;;;;;;20.34;54.88;98669.02;;;;-49
2019/11/05 03:49:45;;;;;;;1.30;1.20;;;;;;;20.33;54.89;98671.12;;;;-49
2019/11/05 03:52:45;;;;;;;1.51;1.17;;;;;;;20.33;54.90;98674.21;;;;-49
2019/11/05 03:55:45;;;;;;;1.25;1.15;;;;;;;20.33;54.87;98684.95;;;;-49
2019/11/05 03:58:45;;;;;;;1.18;1.09;;;;;;;20.33;54.85;98690.75;;;;-49
2019/11/05 04:01:45;;;;;;;1.30;1.20;;;;;;;20.33;54.87;98693.43;;;;-49
2019/11/05 04:04:45;;;;;;;1.51;1.16;;;;;;;20.32;54.86;98689.56;;;;-49
2019/11/05 04:07:45;;;;;;;1.01;1.00;;;;;;;20.32;54.79;98686.27;;;;-49
2019/11/05 04:10:45;;;;;;;1.23;1.13;;;;;;;20.32;54.84;98688.36;;;;-49
2019/11/05 04:13:45;;;;;;;1.28;1.18;;;;;;;20.32;54.85;98684.53;;;;-49
2019/11/05 04:16:45;;;;;;;1.13;1.13;;;;;;;20.32;54.91;98686.94;;;;-49
2019/11/05 04:19:45;;;;;;;1.30;1.20;;;;;;;20.34;54.88;98692.00;;;;-49
2019/11/05 04:22:45;;;;;;;1.45;1.30;;;;;;;20.35;54.89;98689.99;;;;-49
2019/11/05 04:25:45;;;;;;;1.29;1.19;;;;;;;20.37;54.95;98694.31;;;;-49
2019/11/05 04:28:45;;;;;;;1.23;1.18;;;;;;;20.39;54.99;98688.72;;;;-49
2019/11/05 04:31:45;;;;;;;1.05;1.03;;;;;;;20.42;54.93;98685.73;;;;-49
2019/11/05 04:34:45;;;;;;;1.11;1.01;;;;;;;20.45;54.91;98687.17;;;;-49
2019/11/05 04:37:45;;;;;;;1.35;1.23;;;;;;;20.47;54.94;98676.41;;;;-49
2019/11/05 04:40:45;;;;;;;1.11;1.11;;;;;;;20.49;54.98;98664.95;;;;-49
2019/11/05 04:43:45;;;;;;;1.29;1.19;;;;;;;20.52;55.01;98648.38;;;;-49
2019/11/05 04:46:45;;;;;;;1.48;1.10;;;;;;;20.56;54.99;98631.70;;;;-49
2019/11/05 04:49:45;;;;;;;1.40;1.14;;;;;;;20.59;55.00;98622.59;;;;-50
2019/11/05 04:52:45;;;;;;;1.52;1.20;;;;;;;20.62;54.98;98619.78;;;;-50
2019/11/05 04:55:45;;;;;;;1.21;1.03;;;;;;;20.66;55.08;98618.22;;;;-50
2019/11/05 04:58:45;;;;;;;1.12;1.11;;;;;;;20.69;55.06;98619.92;;;;-50
2019/11/05 05:01:45;;;;;;;1.00;1.00;;;;;;;20.72;55.05;98626.50;;;;-50
2019/11/05 05:04:45;;;;;;;1.29;1.11;;;;;;;20.74;55.12;98624.43;;;;-50
2019/11/05 05:07:45;;;;;;;1.17;1.11;;;;;;;20.76;55.16;98625.80;;;;-50
2019/11/05 05:10:45;;;;;;;1.34;1.24;;;;;;;20.79;55.18;98630.02;;;;-50
2019/11/05 05:13:45;;;;;;;1.13;1.13;;;;;;;20.81;55.17;98626.62;;;;-50
2019/11/05 05:16:45;;;;;;;1.45;1.20;;;;;;;20.84;55.17;98635.78;;;;-51
2019/11/05 05:19:45;;;;;;;1.00;1.00;;;;;;;20.87;55.14;98644.27;;;;-50
2019/11/05 05:22:45;;;;;;;1.51;1.15;;;;;;;20.88;55.11;98648.81;;;;-50
2019/11/05 05:25:45;;;;;;;1.02;1.02;;;;;;;20.90;55.11;98650.10;;;;-51
2019/11/05 05:28:45;;;;;;;1.29;1.20;;;;;;;20.91;55.07;98657.66;;;;-51
2019/11/05 05:31:45;;;;;;;1.19;1.13;;;;;;;20.94;55.07;98662.82;;;;-51
2019/11/05 05:34:45;;;;;;;1.26;1.16;;;;;;;20.95;55.13;98656.34;;;;-51
2019/11/05 05:37:45;;;;;;;1.14;1.10;;;;;;;20.96;55.01;98654.27;;;;-51
2019/11/05 05:40:45;;;;;;;1.01;1.00;;;;;;;20.98;55.04;98659.91;;;;-50
2019/11/05 05:43:45;;;;;;;1.43;1.31;;;;;;;20.98;55.06;98656.11;;;;-50
2019/11/05 05:46:45;;;;;;;1.12;1.12;;;;;;;20.99;54.96;98659.16;;;;-52
2019/11/05 05:49:45;;;;;;;2.75;1.24;;;;;;;21.02;54.93;98654.58;;;;-47
2019/11/05 05:52:46;;;;;;;1.30;1.20;;;;;;;21.04;55.14;98653.15;;;;-51
2019/11/05 05:55:46;;;;;;;1.87;1.09;;;;;;;21.06;55.29;98652.25;;;;-48
2019/11/05 05:58:45;;;;;;;1.17;1.07;;;;;;;21.09;55.21;98648.92;;;;-48
2019/11/05 06:01:45;;;;;;;1.95;1.11;;;;;;;21.11;55.27;98648.34;;;;-51
2019/11/05 06:04:45;;;;;;;1.51;1.19;;;;;;;21.13;55.27;98648.80;;;;-48
2019/11/05 06:07:45;;;;;;;1.43;1.21;;;;;;;21.14;54.74;98652.33;;;;-48
2019/11/05 06:10:45;;;;;;;1.87;1.34;;;;;;;21.15;54.82;98652.23;;;;-48
2019/11/05 06:13:45;;;;;;;1.41;1.17;;;;;;;21.17;54.70;98655.11;;;;-48
2019/11/05 06:16:45;;;;;;;1.70;1.10;;;;;;;21.17;54.60;98654.77;;;;-48
2019/11/05 06:19:45;;;;;;;1.31;1.08;;;;;;;21.17;54.62;98658.29;;;;-48
2019/11/05 06:22:45;;;;;;;1.13;1.07;;;;;;;21.19;54.62;98662.17;;;;-48
2019/11/05 06:25:45;;;;;;;1.20;1.10;;;;;;;21.19;54.58;98666.21;;;;-48
2019/11/05 06:28:45;;;;;;;1.15;1.05;;;;;;;21.20;54.57;98677.20;;;;-48
2019/11/05 06:31:45;;;;;;;4.59;1.31;;;;;;;21.21;54.56;98684.18;;;;-54
2019/11/05 06:34:45;;;;;;;1.33;1.22;;;;;;;21.22;54.90;98695.67;;;;-51
2019/11/05 06:37:45;;;;;;;2.25;1.26;;;;;;;21.23;55.00;98702.66;;;;-51
2019/11/05 06:40:45;;;;;;;1.30;1.20;;;;;;;21.25;55.18;98714.78;;;;-51
2019/11/05 06:43:45;;;;;;;4.61;1.22;;;;;;;21.26;55.22;98718.21;;;;-52
2019/11/05 06:46:45;;;;;;;1.16;1.10;;;;;;;21.27;55.29;98723.16;;;;-53
2019/11/05 06:49:45;;;;;;;2.31;1.08;;;;;;;21.29;55.25;98728.58;;;;-52
2019/11/05 06:52:45;;;;;;;1.20;1.10;;;;;;;21.29;55.13;98734.27;;;;-54
2019/11/05 06:55:45;;;;;;;1.29;1.07;;;;;;;21.31;55.12;98739.26;;;;-56
2019/11/05 06:58:45;;;;;;;1.81;1.23;;;;;;;21.31;55.21;98742.78;;;;-54
2019/11/05 07:01:45;;;;;;;2.58;1.27;;;;;;;21.33;55.25;98747.40;;;;-51
2019/11/05 07:04:45;;;;;;;2.95;1.29;;;;;;;21.34;55.37;98754.22;;;;-52
2019/11/05 07:07:45;;;;;;;1.77;1.13;;;;;;;21.37;55.45;98760.44;;;;-51
2019/11/05 07:10:45;;;;;;;3.85;1.15;;;;;;;21.38;55.39;98770.02;;;;-56
2019/11/05 07:13:45;;;;;;;1.22;1.12;;;;;;;21.39;55.23;98771.20;;;;-57
2019/11/05 07:16:45;;;;;;;1.67;1.21;;;;;;;21.39;55.10;98775.19;;;;-53
2019/11/05 07:19:45;;;;;;;3.41;1.09;;;;;;;21.39;54.94;98778.54;;;;-49
2019/11/05 07:22:45;;;;;;;1.88;1.09;;;;;;;21.40;54.99;98781.55;;;;-51
2019/11/05 07:25:45;;;;;;;1.14;1.04;;;;;;;21.39;55.03;98786.58;;;;-53
2019/11/05 07:28:45;;;;;;;2.93;1.25;;;;;;;21.40;55.00;98798.37;;;;-49
2019/11/05 07:31:45;;;;;;;1.19;1.09;;;;;;;21.40;55.06;98788.80;;;;-51
2019/11/05 07:34:45;;;;;;;2.86;1.22;;;;;;;21.41;55.09;98798.95;;;;-52
2019/11/05 07:37:45;;;;;;;1.30;1.12;;;;;;;21.42;55.02;98805.66;;;;-52
2019/11/05 07:40:45;;;;;;;1.91;1.30;;;;;;;21.42;54.94;98805.75;;;;-55
2019/11/05 07:43:45;;;;;;;2.21;1.25;;;;;;;21.42;54.91;98812.47;;;;-50
2019/11/05 07:46:45;;;;;;;2.09;1.27;;;;;;;21.42;55.01;98813.89;;;;-49
2019/11/05 07:49:45;;;;;;;1.58;1.16;;;;;;;21.42;54.94;98818.88;;;;-52
2019/11/05 07:52:45;;;;;;;2.10;1.18;;;;;;;21.43;54.89;98818.27;;;;-53
2019/11/05 07:55:45;;;;;;;1.83;1.23;;;;;;;21.44;54.89;98819.98;;;;-52
2019/11/05 07:58:46;;;;;;;2.13;1.21;;;;;;;21.44;54.95;98824.08;;;;-50
2019/11/05 08:01:45;;;;;;;1.52;1.15;;;;;;;21.44;55.12;98819.30;;;;-49
2019/11/05 08:04:45;;;;;;;2.26;1.21;;;;;;;21.46;54.97;98822.16;;;;-53
2019/11/05 08:07:45;;;;;;;2.29;1.10;;;;;;;21.46;54.97;98822.25;;;;-51
2019/11/05 08:10:45;;;;;;;1.76;1.10;;;;;;;21.47;55.00;98818.64;;;;-51
2019/11/05 08:13:45;;;;;;;1.92;1.16;;;;;;;21.48;54.95;98820.33;;;;-49
2019/11/05 08:16:45;;;;;;;1.30;1.20;;;;;;;21.48;54.92;98824.20;;;;-51
2019/11/05 08:19:45;;;;;;;1.32;1.20;;;;;;;21.49;55.03;98819.17;;;;-57
2019/11/05 08:22:45;;;;;;;2.66;1.31;;;;;;;21.50;54.83;98817.92;;;;-51
2019/11/05 08:25:45;;;;;;;1.69;1.15;;;;;;;21.51;54.78;98818.94;;;;-52
2019/11/05 08:28:45;;;;;;;1.19;1.09;;;;;;;21.52;54.80;98813.81;;;;-56
2019/11/05 08:31:45;;;;;;;2.69;1.21;;;;;;;21.54;54.91;98818.89;;;;-51
2019/11/05 08:34:45;;;;;;;2.35;1.27;;;;;;;21.54;54.63;98818.46;;;;-51
2019/11/05 08:37:45;;;;;;;2.33;1.20;;;;;;;21.54;54.76;98818.64;;;;-59
2019/11/05 08:40:45;;;;;;;4.19;1.67;;;;;;;21.32;51.88;98809.61;;;;-51
2019/11/05 08:43:45;;;;;;;4.04;1.62;;;;;;;21.37;52.72;98815.62;;;;-52
2019/11/05 08:46:45;;;;;;;3.39;1.71;;;;;;;21.39;53.01;98818.05;;;;-50
2019/11/05 08:49:45;;;;;;;4.13;1.57;;;;;;;21.40;53.20;98817.83;;;;-51
2019/11/05 08:52:45;;;;;;;4.22;1.55;;;;;;;21.41;53.43;98819.69;;;;-51
2019/11/05 08:55:45;;;;;;;3.40;1.55;;;;;;;21.42;53.56;98820.03;;;;-50
2019/11/05 08:58:45;;;;;;;3.37;1.57;;;;;;;21.42;53.53;98820.36;;;;-51
2019/11/05 09:01:45;;;;;;;2.34;1.35;;;;;;;21.42;53.64;98814.90;;;;-51
2019/11/05 09:04:45;;;;;;;1.98;1.43;;;;;;;21.42;53.63;98816.19;;;;-51
2019/11/05 09:07:45;;;;;;;2.69;1.40;;;;;;;21.43;53.70;98814.06;;;;-51
2019/11/05 09:10:45;;;;;;;2.30;1.43;;;;;;;21.43;53.64;98817.09;;;;-51
2019/11/05 09:13:45;;;;;;;3.06;1.40;;;;;;;21.44;53.68;98815.42;;;;-51
2019/11/05 09:16:45;;;;;;;2.07;1.41;;;;;;;21.43;53.75;98815.50;;;;-50
2019/11/05 09:19:45;;;;;;;2.07;1.30;;;;;;;21.42;53.70;98820.03;;;;-50
2019/11/05 09:22:45;;;;;;;1.75;1.38;;;;;;;21.43;53.74;98819.44;;;;-50
2019/11/05 09:25:45;;;;;;;2.81;1.56;;;;;;;21.42;53.75;98822.73;;;;-51
2019/11/05 09:28:45;;;;;;;1.89;1.43;;;;;;;21.42;53.77;98824.16;;;;-51
2019/11/05 09:31:45;;;;;;;2.71;1.50;;;;;;;21.42;53.75;98823.65;;;;-51
2019/11/05 09:34:45;;;;;;;2.18;1.41;;;;;;;21.41;53.71;98819.87;;;;-50
2019/11/05 09:37:45;;;;;;;1.72;1.37;;;;;;;21.41;53.82;98821.86;;;;-50
2019/11/05 09:40:45;;;;;;;1.79;1.40;;;;;;;21.41;53.79;98820.11;;;;-50
2019/11/05 09:43:45;;;;;;;2.03;1.30;;;;;;;21.41;53.78;98816.56;;;;-50
2019/11/05 09:46:45;;;;;;;2.26;1.47;;;;;;;21.40;53.87;98812.14;;;;-51
2019/11/05 09:49:45;;;;;;;1.83;1.25;;;;;;;21.40;53.82;98812.64;;;;-51
2019/11/05 09:52:45;;;;;;;1.69;1.23;;;;;;;21.40;53.89;98812.98;;;;-50
2019/11/05 09:55:45;;;;;;;1.91;1.33;;;;;;;21.40;53.78;98810.34;;;;-51
2019/11/05 09:58:45;;;;;;;1.54;1.30;;;;;;;21.40;53.84;98809.86;;;;-50
2019/11/05 10:01:45;;;;;;;1.35;1.25;;;;;;;21.39;53.91;98803.54;;;;-51
2019/11/05 10:04:45;;;;;;;2.29;1.39;;;;;;;21.39;53.84;98804.30;;;;-50
2019/11/05 10:07:45;;;;;;;1.71;1.27;;;;;;;21.39;53.86;98798.86;;;;-50
2019/11/05 10:10:45;;;;;;;1.47;1.35;;;;;;;21.38;53.94;98797.34;;;;-51
2019/11/05 10:13:45;;;;;;;1.48;1.20;;;;;;;21.39;53.90;98800.86;;;;-51
2019/11/05 10:16:45;;;;;;;1.45;1.29;;;;;;;21.39;53.87;98804.30;;;;-51
2019/11/05 10:19:45;;;;;;;2.11;1.30;;;;;;;21.39;53.90;98809.66;;;;-51
2019/11/05 10:22:45;;;;;;;1.43;1.25;;;;;;;21.38;53.89;98807.23;;;;-50
2019/11/05 10:25:45;;;;;;;1.45;1.28;;;;;;;21.38;53.83;98801.88;;;;-51
2019/11/05 10:28:45;;;;;;;1.71;1.40;;;;;;;21.38;53.92;98793.02;;;;-50
2019/11/05 10:31:45;;;;;;;1.89;1.39;;;;;;;21.38;53.86;98790.51;;;;-51
2019/11/05 10:34:45;;;;;;;1.41;1.30;;;;;;;21.37;53.90;98787.50;;;;-51
2019/11/05 10:37:45;;;;;;;1.37;1.27;;;;;;;21.37;53.83;98780.78;;;;-51
2019/11/05 10:40:45;;;;;;;1.36;1.26;;;;;;;21.37;53.83;98785.81;;;;-50
2019/11/05 10:43:45;;;;;;;1.83;1.24;;;;;;;21.38;53.83;98791.02;;;;-51
2019/11/05 10:46:45;;;;;;;1.40;1.30;;;;;;;21.37;53.79;98791.50;;;;-51
2019/11/05 10:49:45;;;;;;;2.07;1.27;;;;;;;21.36;53.85;98794.46;;;;-49
2019/11/05 10:52:45;;;;;;;7.70;1.53;;;;;;;21.38;53.81;98791.94;;;;-50
2019/11/05 10:55:45;;;;;;;2.14;1.30;;;;;;;21.39;53.84;98788.27;;;;-47
2019/11/05 10:58:45;;;;;;;2.97;1.35;;;;;;;21.40;53.92;98790.79;;;;-49
2019/11/05 11:01:45;;;;;;;2.97;1.28;;;;;;;21.40;53.94;98787.45;;;;-50
2019/11/05 11:04:45;;;;;;;1.33;1.23;;;;;;;21.42;53.98;98795.00;;;;-49
2019/11/05 11:07:45;;;;;;;1.83;1.40;;;;;;;21.43;53.94;98789.72;;;;-55
2019/11/05 11:10:45;;;;;;;2.02;1.50;;;;;;;21.46;54.06;98787.92;;;;-57
2019/11/05 11:13:45;;;;;;;2.03;1.39;;;;;;;21.45;53.77;98785.70;;;;-57
2019/11/05 11:16:45;;;;;;;1.98;1.23;;;;;;;21.44;53.83;98786.05;;;;-57
2019/11/05 11:19:45;;;;;;;1.45;1.34;;;;;;;21.45;53.79;98781.51;;;;-57
2019/11/05 11:22:45;;;;;;;1.62;1.30;;;;;;;21.44;53.78;98775.20;;;;-57
2019/11/05 11:25:45;;;;;;;1.41;1.23;;;;;;;21.44;53.68;98770.94;;;;-57
2019/11/05 11:28:45;;;;;;;6.21;1.40;;;;;;;21.44;53.73;98767.56;;;;-52
2019/11/05 11:31:45;;;;;;;3.07;1.29;;;;;;;21.45;53.76;98760.17;;;;-59
2019/11/05 11:34:45;;;;;;;1.83;1.20;;;;;;;21.45;53.93;98763.63;;;;-52
2019/11/05 11:37:45;;;;;;;1.95;1.38;;;;;;;21.46;53.94;98762.56;;;;-59
2019/11/05 11:40:45;;;;;;;1.30;1.20;;;;;;;21.47;53.85;98758.52;;;;-51
2019/11/05 11:43:45;;;;;;;1.32;1.19;;;;;;;21.48;53.76;98762.15;;;;-54
2019/11/05 11:46:45;;;;;;;2.03;1.33;;;;;;;21.48;53.71;98756.35;;;;-57
2019/11/05 11:49:45;;;;;;;1.99;1.45;;;;;;;21.50;53.90;98758.63;;;;-55
2019/11/05 11:52:45;;;;;;;1.77;1.25;;;;;;;21.51;53.98;98759.55;;;;-55
2019/11/05 11:55:45;;;;;;;3.87;1.41;;;;;;;21.51;54.04;98761.06;;;;-53
2019/11/05 11:58:45;;;;;;;6.93;1.73;;;;;;;21.51;53.25;98760.24;;;;-50
2019/11/05 12:01:45;;;;;;;3.67;1.51;;;;;;;21.52;53.49;98758.55;;;;-50
2019/11/05 12:04:45;;;;;;;2.79;1.40;;;;;;;21.51;53.60;98750.76;;;;-50
2019/11/05 12:07:45;;;;;;;3.79;1.43;;;;;;;21.50;53.58;98754.02;;;;-50
2019/11/05 12:10:45;;;;;;;3.08;1.39;;;;;;;21.49;53.49;98748.30;;;;-49
2019/11/05 12:13:45;;;;;;;3.10;1.37;;;;;;;21.48;53.65;98751.05;;;;-50
2019/11/05 12:16:45;;;;;;;2.15;1.46;;;;;;;21.50;53.77;98751.02;;;;-49
2019/11/05 12:19:45;;;;;;;2.43;1.39;;;;;;;21.51;53.81;98751.32;;;;-51
2019/11/05 12:22:45;;;;;;;2.98;1.52;;;;;;;21.51;53.95;98755.04;;;;-49
2019/11/05 12:25:45;;;;;;;3.35;1.55;;;;;;;21.53;53.96;98755.14;;;;-50
2019/11/05 12:28:45;;;;;;;2.35;1.35;;;;;;;21.53;53.88;98753.78;;;;-49
2019/11/05 12:31:45;;;;;;;2.67;1.30;;;;;;;21.54;53.68;98752.62;;;;-51
2019/11/05 12:34:45;;;;;;;2.80;1.30;;;;;;;21.53;53.76;98750.86;;;;-52
2019/11/05 12:37:45;;;;;;;3.54;1.41;;;;;;;21.54;53.78;98754.03;;;;-51
2019/11/05 12:40:45;;;;;;;1.51;1.28;;;;;;;21.53;53.77;98751.50;;;;-52
2019/11/05 12:43:45;;;;;;;2.02;1.49;;;;;;;21.53;53.80;98753.11;;;;-50
2019/11/05 12:46:45;;;;;;;2.93;1.40;;;;;;;21.54;53.55;98749.44;;;;-50
2019/11/05 12:49:45;;;;;;;4.08;1.53;;;;;;;21.53;53.66;98749.33;;;;-57
2019/11/05 12:52:45;;;;;;;2.82;1.61;;;;;;;21.52;53.76;98749.23;;;;-50
2019/11/05 12:55:45;;;;;;;2.23;1.40;;;;;;;21.52;53.74;98749.07;;;;-50
2019/11/05 12:58:45;;;;;;;3.10;1.50;;;;;;;21.51;53.75;98747.65;;;;-50
2019/11/05 13:01:45;;;;;;;3.23;1.39;;;;;;;21.51;53.72;98749.66;;;;-51
2019/11/05 13:04:45;;;;;;;3.17;1.45;;;;;;;21.50;53.75;98752.41;;;;-50
2019/11/05 13:07:45;;;;;;;4.12;1.40;;;;;;;21.50;53.74;98755.28;;;;-51
2019/11/05 13:10:45;;;;;;;2.36;1.31;;;;;;;21.50;53.72;98754.86;;;;-51
2019/11/05 13:13:45;;;;;;;3.44;1.59;;;;;;;21.50;53.77;98750.83;;;;-51
2019/11/05 13:16:45;;;;;;;1.53;1.29;;;;;;;21.50;53.81;98746.37;;;;-51
2019/11/05 13:19:45;;;;;;;1.67;1.20;;;;;;;21.49;53.70;98742.92;;;;-50
2019/11/05 13:22:45;;;;;;;2.43;1.31;;;;;;;21.50;53.76;98745.88;;;;-52
2019/11/05 13:25:45;;;;;;;2.12;1.41;;;;;;;21.49;53.76;98748.48;;;;-51
2019/11/05 13:28:45;;;;;;;1.64;1.40;;;;;;;21.48;53.79;98749.38;;;;-50
2019/11/05 13:31:45;;;;;;;3.14;1.44;;;;;;;21.49;53.82;98747.20;;;;-51
2019/11/05 13:34:45;;;;;;;2.37;1.21;;;;;;;21.48;53.75;98748.70;;;;-50
2019/11/05 13:37:45;;;;;;;1.70;1.23;;;;;;;21.49;53.81;98748.14;;;;-50
2019/11/05 13:40:45;;;;;;;2.85;1.43;;;;;;;21.49;53.78;98745.03;;;;-50
2019/11/05 13:43:45;;;;;;;2.11;1.40;;;;;;;21.48;53.82;98746.34;;;;-50
2019/11/05 13:46:45;;;;;;;2.52;1.33;;;;;;;21.48;53.74;98743.00;;;;-50
2019/11/05 13:49:45;;;;;;;2.15;1.40;;;;;;;21.48;53.79;98746.60;;;;-51
2019/11/05 13:52:45;;;;;;;2.82;1.31;;;;;;;21.48;53.80;98749.63;;;;-50
2019/11/05 13:55:45;;;;;;;1.47;1.23;;;;;;;21.47;53.80;98749.88;;;;-51
2019/11/05 13:58:47;;;;;;;1.93;1.28;;;;;;;21.47;53.77;98748.97;;;;-51
2019/11/05 14:01:45;;;;;;;1.45;1.21;;;;;;;21.46;53.79;98744.82;;;;-50
2019/11/05 14:04:45;;;;;;;1.69;1.30;;;;;;;21.47;53.80;98749.14;;;;-50
2019/11/05 14:07:45;;;;;;;2.40;1.33;;;;;;;21.47;53.77;98753.33;;;;-50
2019/11/05 14:10:45;;;;;;;2.76;1.42;;;;;;;21.47;53.81;98750.87;;;;-50
2019/11/05 14:13:45;;;;;;;3.01;1.40;;;;;;;21.46;53.63;98749.63;;;;-51
2019/11/05 14:16:45;;;;;;;4.40;1.50;;;;;;;21.46;53.20;98752.39;;;;-51
2019/11/05 14:19:45;;;;;;;1.72;1.27;;;;;;;21.46;53.51;98753.47;;;;-51
2019/11/05 14:22:45;;;;;;;2.79;1.30;;;;;;;21.45;53.59;98749.11;;;;-51
2019/11/05 14:25:45;;;;;;;1.97;1.27;;;;;;;21.46;53.55;98750.03;;;;-50
2019/11/05 14:28:45;;;;;;;4.01;1.51;;;;;;;21.42;52.92;98751.03;;;;-50
2019/11/05 14:31:45;;;;;;;4.22;1.74;;;;;;;21.44;52.63;98750.95;;;;-51
2019/11/05 14:34:45;;;;;;;4.23;1.49;;;;;;;21.44;53.08;98748.44;;;;-48
2019/11/05 14:37:45;;;;;;;4.75;1.49;;;;;;;21.46;53.13;98750.04;;;;-50
2019/11/05 14:40:45;;;;;;;4.64;1.70;;;;;;;21.44;52.71;98749.84;;;;-50
2019/11/05 14:43:45;;;;;;;4.97;1.78;;;;;;;21.42;52.63;98745.73;;;;-47
2019/11/05 14:46:45;;;;;;;4.45;1.75;;;;;;;21.45;53.19;98746.09;;;;-47
2019/11/05 14:49:45;;;;;;;5.72;1.73;;;;;;;21.47;53.46;98748.46;;;;-49
2019/11/05 14:52:45;;;;;;;3.99;1.80;;;;;;;21.48;53.61;98750.55;;;;-50
2019/11/05 14:55:45;;;;;;;3.01;1.51;;;;;;;21.51;53.34;98752.60;;;;-51
2019/11/05 14:58:45;;;;;;;5.24;1.73;;;;;;;21.52;53.69;98759.41;;;;-51
2019/11/05 15:01:45;;;;;;;5.15;1.68;;;;;;;21.53;54.04;98755.20;;;;-51
2019/11/05 15:04:45;;;;;;;5.98;1.81;;;;;;;21.55;54.34;98756.08;;;;-50
2019/11/05 15:07:45;;;;;;;2.72;1.61;;;;;;;21.55;54.15;98754.73;;;;-51
2019/11/05 15:10:45;;;;;;;11.20;2.02;;;;;;;21.57;54.04;98757.25;;;;-51
2019/11/05 15:13:45;;;;;;;10.25;2.02;;;;;;;21.59;53.44;98758.91;;;;-50
2019/11/05 15:16:45;;;;;;;6.22;1.81;;;;;;;21.60;53.74;98756.56;;;;-51
2019/11/05 15:19:45;;;;;;;7.41;1.93;;;;;;;21.61;53.73;98750.09;;;;-50
2019/11/05 15:22:45;;;;;;;5.05;1.74;;;;;;;21.61;53.61;98745.90;;;;-52
2019/11/05 15:25:45;;;;;;;3.23;1.65;;;;;;;21.61;53.52;98744.13;;;;-52
2019/11/05 15:28:45;;;;;;;10.45;1.89;;;;;;;21.59;53.67;98742.38;;;;-48
2019/11/05 15:31:47;;;;;;;5.31;1.72;;;;;;;21.59;53.39;98747.30;;;;-48
2019/11/05 15:34:45;;;;;;;6.41;1.76;;;;;;;21.59;53.18;98749.84;;;;-51
2019/11/05 15:37:45;;;;;;;6.45;1.84;;;;;;;21.58;53.04;98750.09;;;;-50
2019/11/05 15:40:45;;;;;;;3.07;1.69;;;;;;;21.59;52.63;98752.84;;;;-50
2019/11/05 15:43:45;;;;;;;4.06;1.86;;;;;;;21.58;52.22;98758.87;;;;-52
2019/11/05 15:46:45;;;;;;;2.61;1.77;;;;;;;21.58;52.22;98754.41;;;;-50
2019/11/05 15:49:45;;;;;;;4.19;1.90;;;;;;;21.59;52.14;98755.36;;;;-51
2019/11/05 15:52:45;;;;;;;4.46;1.87;;;;;;;21.58;52.17;98759.16;;;;-48
2019/11/05 15:55:45;;;;;;;2.58;1.90;;;;;;;21.57;52.02;98756.27;;;;-49
2019/11/05 15:58:45;;;;;;;5.47;2.11;;;;;;;21.57;52.03;98756.25;;;;-51
2019/11/05 16:01:45;;;;;;;5.07;2.03;;;;;;;21.57;51.92;98759.36;;;;-48
2019/11/05 16:04:45;;;;;;;5.42;2.18;;;;;;;21.63;52.68;98762.04;;;;-51
2019/11/05 16:07:45;;;;;;;8.60;2.58;;;;;;;21.64;52.87;98762.48;;;;-52
2019/11/05 16:10:45;;;;;;;13.39;2.14;;;;;;;21.63;53.02;98764.75;;;;-48
2019/11/05 16:13:45;;;;;;;7.19;1.95;;;;;;;21.63;53.03;98770.03;;;;-51
2019/11/05 16:16:45;;;;;;;8.25;2.17;;;;;;;21.63;53.22;98766.00;;;;-53
2019/11/05 16:19:45;;;;;;;4.95;2.21;;;;;;;21.63;52.57;98770.18;;;;-51
2019/11/05 16:22:45;;;;;;;17.80;3.50;;;;;;;21.34;49.12;98775.95;;;;-53
2019/11/05 16:25:45;;;;;;;15.77;3.51;;;;;;;21.19;49.02;98781.02;;;;-53
2019/11/05 16:28:45;;;;;;;8.64;3.04;;;;;;;21.28;49.64;98781.78;;;;-52
2019/11/05 16:31:45;;;;;;;9.26;3.21;;;;;;;21.34;50.44;98783.00;;;;-48
2019/11/05 16:34:45;;;;;;;8.21;2.89;;;;;;;21.38;51.06;98785.06;;;;-49
2019/11/05 16:37:45;;;;;;;6.11;2.75;;;;;;;21.43;51.30;98784.59;;;;-50
2019/11/05 16:40:45;;;;;;;8.66;2.91;;;;;;;21.44;51.53;98785.11;;;;-51
2019/11/05 16:43:45;;;;;;;5.87;2.55;;;;;;;21.47;51.11;98785.55;;;;-48
2019/11/05 16:46:45;;;;;;;10.19;3.03;;;;;;;21.49;51.59;98785.16;;;;-49
2019/11/05 16:49:45;;;;;;;9.01;2.41;;;;;;;21.50;51.76;98788.03;;;;-48
2019/11/05 16:52:45;;;;;;;8.63;2.83;;;;;;;21.51;51.97;98787.36;;;;-48
2019/11/05 16:55:45;;;;;;;6.73;2.65;;;;;;;21.52;52.03;98790.99;;;;-51